sensor_id;sensor_type;location;lat;lon;timestamp;P1;durP1;ratioP1;P2;durP2;ratioP2
9082;SDS011;4577;48.704;9.000;2022-08-18T00:01:42;10.23;;;6.80;;
9082;SDS011;4577;48.704;9.000;2022-08-18T00:04:11;12.73;;;7.13;;
9082;SDS011;4577;48.704;9.000;2022-08-18T00:06:37;7.03;;;6.33;;
9082;SDS011;4577;48.704;9.000;2022-08-18T00:09:06;6.73;;;5.97;;
9082;SDS011;4577;48.704;9.000;2022-08-18T00:11:34;7.40;;;5.73;;
9082;SDS011;4577;48.704;9.000;2022-08-18T00:14:03;8.60;;;6.20;;
9082;SDS011;4577;48.704;9.000;2022-08-18T00:16:29;6.73;;;5.50;;
9082;SDS011;4577;48.704;9.000;2022-08-18T00:18:55;6.43;;;5.83;;
9082;SDS011;4577;48.704;9.000;2022-08-18T00:21:21;5.40;;;4.90;;
9082;SDS011;4577;48.704;9.000;2022-08-18T00:23:47;10.37;;;5.30;;
9082;SDS011;4577;48.704;9.000;2022-08-18T00:26:14;10.17;;;5.90;;
9082;SDS011;4577;48.704;9.000;2022-08-18T00:28:40;8.00;;;5.80;;
9082;SDS011;4577;48.704;9.000;2022-08-18T00:31:06;8.73;;;5.43;;
9082;SDS011;4577;48.704;9.000;2022-08-18T00:33:32;8.53;;;5.60;;
9082;SDS011;4577;48.704;9.000;2022-08-18T00:35:58;8.40;;;5.83;;
9082;SDS011;4577;48.704;9.000;2022-08-18T00:38:24;7.03;;;5.10;;
9082;SDS011;4577;48.704;9.000;2022-08-18T00:40:51;6.10;;;5.47;;
9082;SDS011;4577;48.704;9.000;2022-08-18T00:43:19;8.10;;;5.60;;
9082;SDS011;4577;48.704;9.000;2022-08-18T00:45:56;6.50;;;5.47;;
9082;SDS011;4577;48.704;9.000;2022-08-18T00:48:22;6.93;;;5.37;;
9082;SDS011;4577;48.704;9.000;2022-08-18T00:50:51;8.03;;;5.70;;
9082;SDS011;4577;48.704;9.000;2022-08-18T00:53:40;7.77;;;5.27;;
9082;SDS011;4577;48.704;9.000;2022-08-18T00:56:21;5.57;;;4.97;;
9082;SDS011;4577;48.704;9.000;2022-08-18T00:58:55;8.57;;;5.40;;
9082;SDS011;4577;48.704;9.000;2022-08-18T01:01:24;6.30;;;5.57;;
9082;SDS011;4577;48.704;9.000;2022-08-18T01:03:54;9.73;;;4.73;;
9082;SDS011;4577;48.704;9.000;2022-08-18T01:08:59;9.60;;;6.10;;
9082;SDS011;4577;48.704;9.000;2022-08-18T01:11:27;8.60;;;5.60;;
9082;SDS011;4577;48.704;9.000;2022-08-18T01:13:53;6.40;;;5.50;;
9082;SDS011;4577;48.704;9.000;2022-08-18T01:16:19;8.40;;;5.53;;
9082;SDS011;4577;48.704;9.000;2022-08-18T01:19:04;14.77;;;6.33;;
9082;SDS011;4577;48.704;9.000;2022-08-18T01:22:03;8.90;;;6.17;;
9082;SDS011;4577;48.704;9.000;2022-08-18T01:24:35;10.30;;;6.27;;
9082;SDS011;4577;48.704;9.000;2022-08-18T01:27:21;7.27;;;6.03;;
9082;SDS011;4577;48.704;9.000;2022-08-18T01:29:47;6.27;;;5.67;;
9082;SDS011;4577;48.704;9.000;2022-08-18T01:32:15;10.13;;;5.90;;
9082;SDS011;4577;48.704;9.000;2022-08-18T01:34:44;11.90;;;5.73;;
9082;SDS011;4577;48.704;9.000;2022-08-18T01:37:11;7.47;;;6.00;;
9082;SDS011;4577;48.704;9.000;2022-08-18T01:39:45;5.83;;;5.30;;
9082;SDS011;4577;48.704;9.000;2022-08-18T01:42:12;8.00;;;6.23;;
9082;SDS011;4577;48.704;9.000;2022-08-18T01:44:41;7.60;;;5.93;;
9082;SDS011;4577;48.704;9.000;2022-08-18T01:47:08;6.07;;;5.53;;
9082;SDS011;4577;48.704;9.000;2022-08-18T01:49:36;7.87;;;6.00;;
9082;SDS011;4577;48.704;9.000;2022-08-18T01:52:03;6.00;;;5.50;;
9082;SDS011;4577;48.704;9.000;2022-08-18T01:54:31;6.93;;;6.23;;
9082;SDS011;4577;48.704;9.000;2022-08-18T01:56:57;7.77;;;5.77;;
9082;SDS011;4577;48.704;9.000;2022-08-18T01:59:24;6.43;;;5.83;;
9082;SDS011;4577;48.704;9.000;2022-08-18T02:01:50;7.77;;;6.03;;
9082;SDS011;4577;48.704;9.000;2022-08-18T02:04:16;6.37;;;5.77;;
9082;SDS011;4577;48.704;9.000;2022-08-18T02:06:42;7.60;;;6.30;;
9082;SDS011;4577;48.704;9.000;2022-08-18T02:09:08;7.70;;;6.67;;
9082;SDS011;4577;48.704;9.000;2022-08-18T02:11:35;11.13;;;7.00;;
9082;SDS011;4577;48.704;9.000;2022-08-18T02:14:00;10.27;;;7.00;;
9082;SDS011;4577;48.704;9.000;2022-08-18T02:16:26;9.83;;;6.60;;
9082;SDS011;4577;48.704;9.000;2022-08-18T02:18:53;9.10;;;6.93;;
9082;SDS011;4577;48.704;9.000;2022-08-18T02:21:19;8.47;;;6.93;;
9082;SDS011;4577;48.704;9.000;2022-08-18T02:23:46;11.57;;;6.57;;
9082;SDS011;4577;48.704;9.000;2022-08-18T02:26:14;8.67;;;6.70;;
9082;SDS011;4577;48.704;9.000;2022-08-18T02:28:41;15.03;;;10.40;;
9082;SDS011;4577;48.704;9.000;2022-08-18T02:31:17;13.23;;;8.53;;
9082;SDS011;4577;48.704;9.000;2022-08-18T02:33:45;10.07;;;7.10;;
9082;SDS011;4577;48.704;9.000;2022-08-18T02:36:12;6.93;;;6.13;;
9082;SDS011;4577;48.704;9.000;2022-08-18T02:38:38;9.40;;;7.53;;
9082;SDS011;4577;48.704;9.000;2022-08-18T02:41:06;7.70;;;6.90;;
9082;SDS011;4577;48.704;9.000;2022-08-18T02:43:33;8.07;;;6.60;;
9082;SDS011;4577;48.704;9.000;2022-08-18T02:46:00;8.67;;;7.00;;
9082;SDS011;4577;48.704;9.000;2022-08-18T02:48:26;8.33;;;7.50;;
9082;SDS011;4577;48.704;9.000;2022-08-18T02:53:28;8.90;;;6.70;;
9082;SDS011;4577;48.704;9.000;2022-08-18T02:55:55;7.90;;;7.10;;
9082;SDS011;4577;48.704;9.000;2022-08-18T02:58:38;13.77;;;7.60;;
9082;SDS011;4577;48.704;9.000;2022-08-18T03:01:04;9.73;;;6.57;;
9082;SDS011;4577;48.704;9.000;2022-08-18T03:03:30;9.00;;;7.80;;
9082;SDS011;4577;48.704;9.000;2022-08-18T03:05:56;8.50;;;7.07;;
9082;SDS011;4577;48.704;9.000;2022-08-18T03:08:22;8.50;;;7.37;;
9082;SDS011;4577;48.704;9.000;2022-08-18T03:10:51;14.27;;;7.20;;
9082;SDS011;4577;48.704;9.000;2022-08-18T03:13:18;8.47;;;7.50;;
9082;SDS011;4577;48.704;9.000;2022-08-18T03:15:44;9.37;;;7.50;;
9082;SDS011;4577;48.704;9.000;2022-08-18T03:18:11;9.00;;;7.60;;
9082;SDS011;4577;48.704;9.000;2022-08-18T03:20:37;10.23;;;7.53;;
9082;SDS011;4577;48.704;9.000;2022-08-18T03:23:03;10.53;;;7.40;;
9082;SDS011;4577;48.704;9.000;2022-08-18T03:25:30;9.27;;;7.97;;
9082;SDS011;4577;48.704;9.000;2022-08-18T03:27:56;10.93;;;7.77;;
9082;SDS011;4577;48.704;9.000;2022-08-18T03:30:22;9.00;;;6.97;;
9082;SDS011;4577;48.704;9.000;2022-08-18T03:32:48;9.47;;;7.33;;
9082;SDS011;4577;48.704;9.000;2022-08-18T03:35:14;10.17;;;7.70;;
9082;SDS011;4577;48.704;9.000;2022-08-18T03:37:40;11.97;;;8.17;;
9082;SDS011;4577;48.704;9.000;2022-08-18T03:40:07;8.00;;;7.20;;
9082;SDS011;4577;48.704;9.000;2022-08-18T03:42:34;8.33;;;7.27;;
9082;SDS011;4577;48.704;9.000;2022-08-18T03:45:00;9.87;;;7.70;;
9082;SDS011;4577;48.704;9.000;2022-08-18T03:47:26;9.47;;;7.60;;
9082;SDS011;4577;48.704;9.000;2022-08-18T03:49:52;10.20;;;8.10;;
9082;SDS011;4577;48.704;9.000;2022-08-18T03:52:18;11.03;;;8.20;;
9082;SDS011;4577;48.704;9.000;2022-08-18T03:54:44;11.27;;;8.37;;
9082;SDS011;4577;48.704;9.000;2022-08-18T03:57:11;9.57;;;8.13;;
9082;SDS011;4577;48.704;9.000;2022-08-18T03:59:37;8.90;;;8.00;;
9082;SDS011;4577;48.704;9.000;2022-08-18T04:02:05;17.00;;;10.00;;
9082;SDS011;4577;48.704;9.000;2022-08-18T04:04:31;11.90;;;9.37;;
9082;SDS011;4577;48.704;9.000;2022-08-18T04:06:58;12.37;;;9.40;;
9082;SDS011;4577;48.704;9.000;2022-08-18T04:09:31;28.00;;;11.17;;
9082;SDS011;4577;48.704;9.000;2022-08-18T04:12:02;22.20;;;9.60;;
9082;SDS011;4577;48.704;9.000;2022-08-18T04:14:36;11.90;;;8.33;;
9082;SDS011;4577;48.704;9.000;2022-08-18T04:17:03;10.40;;;7.80;;
9082;SDS011;4577;48.704;9.000;2022-08-18T04:19:29;10.43;;;8.10;;
9082;SDS011;4577;48.704;9.000;2022-08-18T04:21:58;22.60;;;10.27;;
9082;SDS011;4577;48.704;9.000;2022-08-18T04:24:25;19.63;;;9.30;;
9082;SDS011;4577;48.704;9.000;2022-08-18T04:26:53;27.47;;;10.20;;
9082;SDS011;4577;48.704;9.000;2022-08-18T04:29:20;29.57;;;10.63;;
9082;SDS011;4577;48.704;9.000;2022-08-18T04:31:47;15.30;;;8.73;;
9082;SDS011;4577;48.704;9.000;2022-08-18T04:34:14;23.33;;;10.30;;
9082;SDS011;4577;48.704;9.000;2022-08-18T04:36:40;21.73;;;11.50;;
9082;SDS011;4577;48.704;9.000;2022-08-18T04:39:08;13.00;;;9.47;;
9082;SDS011;4577;48.704;9.000;2022-08-18T04:41:36;12.30;;;8.70;;
9082;SDS011;4577;48.704;9.000;2022-08-18T04:44:03;11.43;;;9.17;;
9082;SDS011;4577;48.704;9.000;2022-08-18T04:46:40;10.13;;;8.80;;
9082;SDS011;4577;48.704;9.000;2022-08-18T04:49:09;12.20;;;8.47;;
9082;SDS011;4577;48.704;9.000;2022-08-18T04:51:39;14.10;;;8.30;;
9082;SDS011;4577;48.704;9.000;2022-08-18T04:54:07;11.77;;;8.60;;
9082;SDS011;4577;48.704;9.000;2022-08-18T04:56:35;9.10;;;8.03;;
9082;SDS011;4577;48.704;9.000;2022-08-18T04:59:03;11.93;;;9.00;;
9082;SDS011;4577;48.704;9.000;2022-08-18T05:01:33;9.27;;;8.20;;
9082;SDS011;4577;48.704;9.000;2022-08-18T05:04:00;12.30;;;9.27;;
9082;SDS011;4577;48.704;9.000;2022-08-18T05:06:27;16.27;;;8.63;;
9082;SDS011;4577;48.704;9.000;2022-08-18T05:08:53;8.90;;;8.00;;
9082;SDS011;4577;48.704;9.000;2022-08-18T05:11:21;9.00;;;8.20;;
9082;SDS011;4577;48.704;9.000;2022-08-18T05:13:48;10.30;;;8.83;;
9082;SDS011;4577;48.704;9.000;2022-08-18T05:16:17;11.10;;;9.27;;
9082;SDS011;4577;48.704;9.000;2022-08-18T05:18:43;11.00;;;9.13;;
9082;SDS011;4577;48.704;9.000;2022-08-18T05:21:09;9.97;;;8.77;;
9082;SDS011;4577;48.704;9.000;2022-08-18T05:23:42;10.63;;;8.67;;
9082;SDS011;4577;48.704;9.000;2022-08-18T05:26:10;11.23;;;8.50;;
9082;SDS011;4577;48.704;9.000;2022-08-18T05:28:40;9.70;;;8.40;;
9082;SDS011;4577;48.704;9.000;2022-08-18T05:31:10;13.77;;;8.47;;
9082;SDS011;4577;48.704;9.000;2022-08-18T05:33:40;12.73;;;8.90;;
9082;SDS011;4577;48.704;9.000;2022-08-18T05:37:11;14.53;;;9.43;;
9082;SDS011;4577;48.704;9.000;2022-08-18T05:39:14;12.73;;;8.83;;
9082;SDS011;4577;48.704;9.000;2022-08-18T05:44:36;12.73;;;10.00;;
9082;SDS011;4577;48.704;9.000;2022-08-18T05:47:12;15.00;;;9.60;;
9082;SDS011;4577;48.704;9.000;2022-08-18T05:49:42;11.90;;;8.93;;
9082;SDS011;4577;48.704;9.000;2022-08-18T05:52:17;17.67;;;9.57;;
9082;SDS011;4577;48.704;9.000;2022-08-18T05:55:02;10.53;;;8.53;;
9082;SDS011;4577;48.704;9.000;2022-08-18T05:57:56;10.90;;;9.10;;
9082;SDS011;4577;48.704;9.000;2022-08-18T06:00:25;9.77;;;8.57;;
9082;SDS011;4577;48.704;9.000;2022-08-18T06:03:02;11.00;;;8.67;;
9082;SDS011;4577;48.704;9.000;2022-08-18T06:05:47;11.97;;;8.80;;
9082;SDS011;4577;48.704;9.000;2022-08-18T06:08:17;16.70;;;10.37;;
9082;SDS011;4577;48.704;9.000;2022-08-18T06:10:47;13.97;;;8.53;;
9082;SDS011;4577;48.704;9.000;2022-08-18T06:13:14;14.17;;;9.00;;
9082;SDS011;4577;48.704;9.000;2022-08-18T06:26:37;11.90;;;8.40;;
9082;SDS011;4577;48.704;9.000;2022-08-18T06:29:49;13.20;;;10.70;;
9082;SDS011;4577;48.704;9.000;2022-08-18T06:37:34;12.43;;;9.03;;
9082;SDS011;4577;48.704;9.000;2022-08-18T06:40:27;9.83;;;8.83;;
9082;SDS011;4577;48.704;9.000;2022-08-18T06:42:53;12.63;;;8.60;;
9082;SDS011;4577;48.704;9.000;2022-08-18T06:45:21;12.37;;;9.67;;
9082;SDS011;4577;48.704;9.000;2022-08-18T06:47:59;12.33;;;8.43;;
9082;SDS011;4577;48.704;9.000;2022-08-18T06:50:49;16.10;;;8.70;;
9082;SDS011;4577;48.704;9.000;2022-08-18T06:53:17;11.03;;;8.03;;
9082;SDS011;4577;48.704;9.000;2022-08-18T06:55:44;12.67;;;9.50;;
9082;SDS011;4577;48.704;9.000;2022-08-18T07:00:41;17.53;;;12.00;;
9082;SDS011;4577;48.704;9.000;2022-08-18T07:03:19;21.23;;;13.43;;
9082;SDS011;4577;48.704;9.000;2022-08-18T07:08:43;19.53;;;8.73;;
9082;SDS011;4577;48.704;9.000;2022-08-18T07:11:29;29.93;;;20.50;;
9082;SDS011;4577;48.704;9.000;2022-08-18T07:16:39;12.30;;;9.90;;
9082;SDS011;4577;48.704;9.000;2022-08-18T07:19:16;8.60;;;7.70;;
9082;SDS011;4577;48.704;9.000;2022-08-18T07:21:45;7.57;;;6.77;;
9082;SDS011;4577;48.704;9.000;2022-08-18T07:24:38;9.00;;;6.93;;
9082;SDS011;4577;48.704;9.000;2022-08-18T07:27:13;9.03;;;8.13;;
9082;SDS011;4577;48.704;9.000;2022-08-18T07:32:25;8.50;;;7.70;;
9082;SDS011;4577;48.704;9.000;2022-08-18T07:34:56;11.80;;;10.27;;
9082;SDS011;4577;48.704;9.000;2022-08-18T07:37:25;14.63;;;9.27;;
9082;SDS011;4577;48.704;9.000;2022-08-18T07:40:06;12.50;;;8.83;;
9082;SDS011;4577;48.704;9.000;2022-08-18T07:43:00;10.43;;;8.87;;
9082;SDS011;4577;48.704;9.000;2022-08-18T07:45:30;16.07;;;9.57;;
9082;SDS011;4577;48.704;9.000;2022-08-18T07:50:41;16.50;;;11.97;;
9082;SDS011;4577;48.704;9.000;2022-08-18T07:55:43;19.60;;;11.90;;
9082;SDS011;4577;48.704;9.000;2022-08-18T08:01:22;10.23;;;9.07;;
9082;SDS011;4577;48.704;9.000;2022-08-18T08:04:24;11.20;;;9.03;;
9082;SDS011;4577;48.704;9.000;2022-08-18T08:09:28;16.20;;;12.63;;
9082;SDS011;4577;48.704;9.000;2022-08-18T08:12:30;12.73;;;9.40;;
9082;SDS011;4577;48.704;9.000;2022-08-18T08:15:22;34.03;;;12.33;;
9082;SDS011;4577;48.704;9.000;2022-08-18T08:28:22;12.27;;;9.03;;
9082;SDS011;4577;48.704;9.000;2022-08-18T08:33:47;9.10;;;8.27;;
9082;SDS011;4577;48.704;9.000;2022-08-18T08:36:26;11.97;;;8.00;;
9082;SDS011;4577;48.704;9.000;2022-08-18T08:38:58;12.33;;;7.77;;
9082;SDS011;4577;48.704;9.000;2022-08-18T08:41:31;12.60;;;8.90;;
9082;SDS011;4577;48.704;9.000;2022-08-18T08:44:09;11.97;;;8.90;;
9082;SDS011;4577;48.704;9.000;2022-08-18T08:46:49;10.83;;;9.53;;
9082;SDS011;4577;48.704;9.000;2022-08-18T08:49:31;10.53;;;9.00;;
9082;SDS011;4577;48.704;9.000;2022-08-18T08:52:14;10.57;;;9.47;;
9082;SDS011;4577;48.704;9.000;2022-08-18T08:54:55;12.90;;;9.00;;
9082;SDS011;4577;48.704;9.000;2022-08-18T08:57:35;11.93;;;9.57;;
9082;SDS011;4577;48.704;9.000;2022-08-18T09:00:06;11.67;;;9.60;;
9082;SDS011;4577;48.704;9.000;2022-08-18T09:05:07;14.87;;;10.20;;
9082;SDS011;4577;48.704;9.000;2022-08-18T09:08:00;10.53;;;9.20;;
9082;SDS011;4577;48.704;9.000;2022-08-18T09:26:52;10.47;;;9.37;;
9082;SDS011;4577;48.704;9.000;2022-08-18T09:39:42;10.87;;;9.37;;
9082;SDS011;4577;48.704;9.000;2022-08-18T09:42:46;11.13;;;9.50;;
9082;SDS011;4577;48.704;9.000;2022-08-18T09:48:39;14.10;;;10.20;;
9082;SDS011;4577;48.704;9.000;2022-08-18T09:50:58;12.13;;;10.80;;
9082;SDS011;4577;48.704;9.000;2022-08-18T09:56:12;10.60;;;9.60;;
9082;SDS011;4577;48.704;9.000;2022-08-18T09:58:47;14.30;;;10.50;;
9082;SDS011;4577;48.704;9.000;2022-08-18T10:04:16;13.43;;;10.40;;
9082;SDS011;4577;48.704;9.000;2022-08-18T10:06:49;11.03;;;9.87;;
9082;SDS011;4577;48.704;9.000;2022-08-18T10:12:27;22.70;;;10.83;;
9082;SDS011;4577;48.704;9.000;2022-08-18T10:14:33;17.37;;;10.43;;
9082;SDS011;4577;48.704;9.000;2022-08-18T10:17:19;11.97;;;10.50;;
9082;SDS011;4577;48.704;9.000;2022-08-18T10:22:41;11.33;;;10.13;;
9082;SDS011;4577;48.704;9.000;2022-08-18T10:25:10;14.63;;;10.10;;
9082;SDS011;4577;48.704;9.000;2022-08-18T10:32:58;12.10;;;10.27;;
9082;SDS011;4577;48.704;9.000;2022-08-18T10:40:57;11.00;;;9.90;;
9082;SDS011;4577;48.704;9.000;2022-08-18T10:43:36;11.43;;;9.70;;
9082;SDS011;4577;48.704;9.000;2022-08-18T10:46:13;11.83;;;10.17;;
9082;SDS011;4577;48.704;9.000;2022-08-18T10:49:14;21.33;;;10.83;;
9082;SDS011;4577;48.704;9.000;2022-08-18T10:51:52;11.10;;;10.00;;
9082;SDS011;4577;48.704;9.000;2022-08-18T11:01:19;13.87;;;10.50;;
9082;SDS011;4577;48.704;9.000;2022-08-18T11:06:26;12.53;;;10.03;;
9082;SDS011;4577;48.704;9.000;2022-08-18T11:08:54;11.30;;;10.10;;
9082;SDS011;4577;48.704;9.000;2022-08-18T11:11:24;11.33;;;10.20;;
9082;SDS011;4577;48.704;9.000;2022-08-18T11:19:42;12.27;;;10.10;;
9082;SDS011;4577;48.704;9.000;2022-08-18T11:22:20;13.30;;;10.80;;
9082;SDS011;4577;48.704;9.000;2022-08-18T11:24:51;13.37;;;10.03;;
9082;SDS011;4577;48.704;9.000;2022-08-18T11:27:24;12.03;;;10.53;;
9082;SDS011;4577;48.704;9.000;2022-08-18T11:29:53;10.90;;;9.80;;
9082;SDS011;4577;48.704;9.000;2022-08-18T11:32:23;13.07;;;10.40;;
9082;SDS011;4577;48.704;9.000;2022-08-18T11:40:11;14.33;;;10.30;;
9082;SDS011;4577;48.704;9.000;2022-08-18T11:42:58;12.00;;;10.50;;
9082;SDS011;4577;48.704;9.000;2022-08-18T11:45:46;13.93;;;10.30;;
9082;SDS011;4577;48.704;9.000;2022-08-18T11:48:37;12.67;;;9.80;;
9082;SDS011;4577;48.704;9.000;2022-08-18T11:53:50;11.57;;;10.37;;
9082;SDS011;4577;48.704;9.000;2022-08-18T11:58:53;13.30;;;11.00;;
9082;SDS011;4577;48.704;9.000;2022-08-18T12:01:32;15.60;;;12.40;;
9082;SDS011;4577;48.704;9.000;2022-08-18T12:06:50;15.40;;;11.27;;
9082;SDS011;4577;48.704;9.000;2022-08-18T12:09:18;14.60;;;11.50;;
9082;SDS011;4577;48.704;9.000;2022-08-18T12:11:53;12.40;;;10.50;;
9082;SDS011;4577;48.704;9.000;2022-08-18T12:14:22;20.37;;;11.57;;
9082;SDS011;4577;48.704;9.000;2022-08-18T12:16:50;11.90;;;10.70;;
9082;SDS011;4577;48.704;9.000;2022-08-18T12:19:16;11.90;;;10.73;;
9082;SDS011;4577;48.704;9.000;2022-08-18T12:21:57;16.00;;;11.83;;
9082;SDS011;4577;48.704;9.000;2022-08-18T12:24:25;14.60;;;10.47;;
9082;SDS011;4577;48.704;9.000;2022-08-18T12:26:53;28.30;;;18.17;;
9082;SDS011;4577;48.704;9.000;2022-08-18T12:29:19;13.60;;;11.07;;
9082;SDS011;4577;48.704;9.000;2022-08-18T12:31:53;13.10;;;10.40;;
9082;SDS011;4577;48.704;9.000;2022-08-18T12:34:20;16.70;;;10.37;;
9082;SDS011;4577;48.704;9.000;2022-08-18T12:36:50;13.83;;;11.57;;
9082;SDS011;4577;48.704;9.000;2022-08-18T12:39:21;12.00;;;10.83;;
9082;SDS011;4577;48.704;9.000;2022-08-18T12:41:48;18.73;;;10.90;;
9082;SDS011;4577;48.704;9.000;2022-08-18T12:44:14;12.47;;;10.40;;
9082;SDS011;4577;48.704;9.000;2022-08-18T12:46:40;12.33;;;10.03;;
9082;SDS011;4577;48.704;9.000;2022-08-18T12:49:10;19.70;;;10.60;;
9082;SDS011;4577;48.704;9.000;2022-08-18T12:51:40;13.30;;;11.13;;
9082;SDS011;4577;48.704;9.000;2022-08-18T12:54:06;14.37;;;10.23;;
9082;SDS011;4577;48.704;9.000;2022-08-18T12:56:33;10.93;;;9.33;;
9082;SDS011;4577;48.704;9.000;2022-08-18T12:59:00;11.87;;;9.87;;
9082;SDS011;4577;48.704;9.000;2022-08-18T13:01:27;16.33;;;9.00;;
9082;SDS011;4577;48.704;9.000;2022-08-18T13:03:54;19.87;;;10.47;;
9082;SDS011;4577;48.704;9.000;2022-08-18T13:06:23;22.70;;;10.10;;
9082;SDS011;4577;48.704;9.000;2022-08-18T13:08:50;13.77;;;9.70;;
9082;SDS011;4577;48.704;9.000;2022-08-18T13:11:19;13.30;;;9.40;;
9082;SDS011;4577;48.704;9.000;2022-08-18T13:13:46;14.93;;;8.67;;
9082;SDS011;4577;48.704;9.000;2022-08-18T13:16:12;14.13;;;9.27;;
9082;SDS011;4577;48.704;9.000;2022-08-18T13:18:39;10.53;;;8.20;;
9082;SDS011;4577;48.704;9.000;2022-08-18T13:21:06;10.30;;;9.10;;
9082;SDS011;4577;48.704;9.000;2022-08-18T13:23:34;15.33;;;9.03;;
9082;SDS011;4577;48.704;9.000;2022-08-18T13:26:01;17.77;;;8.90;;
9082;SDS011;4577;48.704;9.000;2022-08-18T13:28:29;13.00;;;8.93;;
9082;SDS011;4577;48.704;9.000;2022-08-18T13:30:56;45.00;;;12.67;;
9082;SDS011;4577;48.704;9.000;2022-08-18T13:33:22;16.70;;;10.10;;
9082;SDS011;4577;48.704;9.000;2022-08-18T13:35:48;11.43;;;9.40;;
9082;SDS011;4577;48.704;9.000;2022-08-18T13:38:15;13.60;;;9.93;;
9082;SDS011;4577;48.704;9.000;2022-08-18T13:40:47;14.43;;;8.90;;
9082;SDS011;4577;48.704;9.000;2022-08-18T13:43:18;13.73;;;10.53;;
9082;SDS011;4577;48.704;9.000;2022-08-18T13:45:47;16.47;;;9.73;;
9082;SDS011;4577;48.704;9.000;2022-08-18T13:48:14;15.40;;;12.40;;
9082;SDS011;4577;48.704;9.000;2022-08-18T13:50:41;13.47;;;11.13;;
9082;SDS011;4577;48.704;9.000;2022-08-18T13:53:12;24.43;;;14.47;;
9082;SDS011;4577;48.704;9.000;2022-08-18T13:55:40;13.57;;;9.00;;
9082;SDS011;4577;48.704;9.000;2022-08-18T13:58:05;12.90;;;9.53;;
9082;SDS011;4577;48.704;9.000;2022-08-18T14:00:32;14.17;;;10.07;;
9082;SDS011;4577;48.704;9.000;2022-08-18T14:02:59;30.10;;;10.27;;
9082;SDS011;4577;48.704;9.000;2022-08-18T14:05:25;15.20;;;8.83;;
9082;SDS011;4577;48.704;9.000;2022-08-18T14:08:01;10.30;;;8.90;;
9082;SDS011;4577;48.704;9.000;2022-08-18T14:10:30;14.57;;;9.60;;
9082;SDS011;4577;48.704;9.000;2022-08-18T14:12:58;16.10;;;9.63;;
9082;SDS011;4577;48.704;9.000;2022-08-18T14:15:25;13.40;;;9.77;;
9082;SDS011;4577;48.704;9.000;2022-08-18T14:17:51;18.30;;;10.07;;
9082;SDS011;4577;48.704;9.000;2022-08-18T14:20:17;12.90;;;9.20;;
9082;SDS011;4577;48.704;9.000;2022-08-18T14:23:03;14.23;;;9.43;;
9082;SDS011;4577;48.704;9.000;2022-08-18T14:25:48;13.77;;;9.43;;
9082;SDS011;4577;48.704;9.000;2022-08-18T14:28:33;16.30;;;9.50;;
9082;SDS011;4577;48.704;9.000;2022-08-18T14:31:00;14.07;;;9.60;;
9082;SDS011;4577;48.704;9.000;2022-08-18T14:33:28;23.57;;;10.23;;
9082;SDS011;4577;48.704;9.000;2022-08-18T14:35:55;29.30;;;18.20;;
9082;SDS011;4577;48.704;9.000;2022-08-18T14:38:22;21.43;;;10.57;;
9082;SDS011;4577;48.704;9.000;2022-08-18T14:40:48;16.80;;;11.10;;
9082;SDS011;4577;48.704;9.000;2022-08-18T14:43:16;17.93;;;11.07;;
9082;SDS011;4577;48.704;9.000;2022-08-18T14:45:45;22.37;;;8.63;;
9082;SDS011;4577;48.704;9.000;2022-08-18T14:48:13;14.80;;;10.27;;
9082;SDS011;4577;48.704;9.000;2022-08-18T14:50:41;21.07;;;9.17;;
9082;SDS011;4577;48.704;9.000;2022-08-18T14:53:08;14.57;;;8.70;;
9082;SDS011;4577;48.704;9.000;2022-08-18T14:55:34;11.83;;;8.70;;
9082;SDS011;4577;48.704;9.000;2022-08-18T14:58:01;9.40;;;8.37;;
9082;SDS011;4577;48.704;9.000;2022-08-18T15:00:28;16.33;;;9.90;;
9082;SDS011;4577;48.704;9.000;2022-08-18T15:02:54;20.67;;;15.70;;
9082;SDS011;4577;48.704;9.000;2022-08-18T15:05:21;15.60;;;9.03;;
9082;SDS011;4577;48.704;9.000;2022-08-18T15:07:47;10.73;;;8.53;;
9082;SDS011;4577;48.704;9.000;2022-08-18T15:10:13;14.30;;;8.93;;
9082;SDS011;4577;48.704;9.000;2022-08-18T15:12:39;10.07;;;8.43;;
9082;SDS011;4577;48.704;9.000;2022-08-18T15:15:06;10.63;;;8.93;;
9082;SDS011;4577;48.704;9.000;2022-08-18T15:17:36;11.33;;;8.70;;
9082;SDS011;4577;48.704;9.000;2022-08-18T15:20:06;14.80;;;9.03;;
9082;SDS011;4577;48.704;9.000;2022-08-18T15:22:40;9.23;;;8.33;;
9082;SDS011;4577;48.704;9.000;2022-08-18T15:25:27;13.10;;;7.93;;
9082;SDS011;4577;48.704;9.000;2022-08-18T15:28:12;14.73;;;8.33;;
9082;SDS011;4577;48.704;9.000;2022-08-18T15:30:47;10.13;;;8.13;;
9082;SDS011;4577;48.704;9.000;2022-08-18T15:33:14;38.23;;;15.37;;
9082;SDS011;4577;48.704;9.000;2022-08-18T15:35:43;12.67;;;8.50;;
9082;SDS011;4577;48.704;9.000;2022-08-18T15:38:12;12.40;;;7.90;;
9082;SDS011;4577;48.704;9.000;2022-08-18T15:40:49;11.40;;;8.43;;
9082;SDS011;4577;48.704;9.000;2022-08-18T15:43:18;19.63;;;10.20;;
9082;SDS011;4577;48.704;9.000;2022-08-18T15:45:45;9.97;;;7.70;;
9082;SDS011;4577;48.704;9.000;2022-08-18T15:48:14;9.73;;;7.77;;
9082;SDS011;4577;48.704;9.000;2022-08-18T15:50:41;10.07;;;8.10;;
9082;SDS011;4577;48.704;9.000;2022-08-18T15:53:10;10.70;;;9.60;;
9082;SDS011;4577;48.704;9.000;2022-08-18T15:55:37;15.13;;;9.10;;
9082;SDS011;4577;48.704;9.000;2022-08-18T15:58:04;9.40;;;8.50;;
9082;SDS011;4577;48.704;9.000;2022-08-18T16:00:31;10.23;;;8.73;;
9082;SDS011;4577;48.704;9.000;2022-08-18T16:03:02;22.30;;;8.83;;
9082;SDS011;4577;48.704;9.000;2022-08-18T16:05:31;9.93;;;8.90;;
9082;SDS011;4577;48.704;9.000;2022-08-18T16:07:59;11.10;;;8.37;;
9082;SDS011;4577;48.704;9.000;2022-08-18T16:10:26;10.73;;;8.60;;
9082;SDS011;4577;48.704;9.000;2022-08-18T16:12:54;15.60;;;8.00;;
9082;SDS011;4577;48.704;9.000;2022-08-18T16:15:21;9.50;;;8.50;;
9082;SDS011;4577;48.704;9.000;2022-08-18T16:17:49;12.07;;;9.10;;
9082;SDS011;4577;48.704;9.000;2022-08-18T16:20:17;11.30;;;8.93;;
9082;SDS011;4577;48.704;9.000;2022-08-18T16:22:43;9.93;;;8.30;;
9082;SDS011;4577;48.704;9.000;2022-08-18T16:25:10;12.53;;;8.17;;
9082;SDS011;4577;48.704;9.000;2022-08-18T16:27:37;13.63;;;12.17;;
9082;SDS011;4577;48.704;9.000;2022-08-18T16:30:14;11.17;;;10.07;;
9082;SDS011;4577;48.704;9.000;2022-08-18T16:32:43;9.10;;;8.23;;
9082;SDS011;4577;48.704;9.000;2022-08-18T16:35:11;9.70;;;8.70;;
9082;SDS011;4577;48.704;9.000;2022-08-18T16:37:38;12.70;;;8.30;;
9082;SDS011;4577;48.704;9.000;2022-08-18T16:40:05;9.00;;;8.20;;
9082;SDS011;4577;48.704;9.000;2022-08-18T16:42:32;11.60;;;8.70;;
9082;SDS011;4577;48.704;9.000;2022-08-18T16:44:58;11.17;;;7.97;;
9082;SDS011;4577;48.704;9.000;2022-08-18T16:47:25;10.60;;;7.87;;
9082;SDS011;4577;48.704;9.000;2022-08-18T16:49:51;8.87;;;7.13;;
9082;SDS011;4577;48.704;9.000;2022-08-18T16:52:18;10.63;;;7.70;;
9082;SDS011;4577;48.704;9.000;2022-08-18T16:54:45;7.47;;;6.77;;
9082;SDS011;4577;48.704;9.000;2022-08-18T16:57:11;8.73;;;6.90;;
9082;SDS011;4577;48.704;9.000;2022-08-18T16:59:38;8.83;;;7.57;;
9082;SDS011;4577;48.704;9.000;2022-08-18T17:02:22;13.77;;;8.40;;
9082;SDS011;4577;48.704;9.000;2022-08-18T17:05:07;8.30;;;7.50;;
9082;SDS011;4577;48.704;9.000;2022-08-18T17:07:34;9.70;;;8.70;;
9082;SDS011;4577;48.704;9.000;2022-08-18T17:10:00;11.80;;;9.27;;
9082;SDS011;4577;48.704;9.000;2022-08-18T17:12:27;10.20;;;9.20;;
9082;SDS011;4577;48.704;9.000;2022-08-18T17:14:53;13.73;;;9.70;;
9082;SDS011;4577;48.704;9.000;2022-08-18T17:17:20;10.90;;;9.80;;
9082;SDS011;4577;48.704;9.000;2022-08-18T17:19:46;11.87;;;10.40;;
9082;SDS011;4577;48.704;9.000;2022-08-18T17:22:16;13.60;;;10.03;;
9082;SDS011;4577;48.704;9.000;2022-08-18T17:24:44;11.93;;;9.90;;
9082;SDS011;4577;48.704;9.000;2022-08-18T17:27:21;10.93;;;9.80;;
9082;SDS011;4577;48.704;9.000;2022-08-18T17:30:30;11.17;;;10.10;;
9082;SDS011;4577;48.704;9.000;2022-08-18T17:33:25;10.90;;;9.77;;
9082;SDS011;4577;48.704;9.000;2022-08-18T17:35:47;15.30;;;10.33;;
9082;SDS011;4577;48.704;9.000;2022-08-18T17:40:56;14.30;;;12.27;;
9082;SDS011;4577;48.704;9.000;2022-08-18T17:43:24;14.23;;;12.73;;
9082;SDS011;4577;48.704;9.000;2022-08-18T17:45:57;16.40;;;13.03;;
9082;SDS011;4577;48.704;9.000;2022-08-18T17:49:10;17.57;;;14.23;;
9082;SDS011;4577;48.704;9.000;2022-08-18T17:52:12;17.27;;;15.47;;